Miguel Paz

Olheiro - San Martín SJ
4 Dez 2028
Segunda-feira
Processo

Personalidade

Adaptabilidade (13) Ambição (9) Controvérsia (1) Lealdade (1) Pressão (2) Profissionalismo (5) Espírito Esportivo (18) Temperamento (11)

Perfil

Estilo de Treinamento Democrático
Licença Continental Pro
Determinação 5
Gestão de Pessoas 11
Motivação 10
Disciplina 6
Satisfação no Trabalho
100%
Fadiga
0%
Função Olheiro
Salário 66.0K p/s
Contrato 14.03.2030

Desempenho

Comportamento Bom
Eficácia do Treinamento
45%
Desenvolvimento do Jogador
25%
Prevenção de Lesões
20%
Implementação Tática
55%

Eventos Recentes

Participou de uma reunião de recrutamento 14d atrás
Participou de uma reunião de recrutamento 21d atrás
Participou de uma reunião de recrutamento 28d atrás
Participou de uma reunião de recrutamento 35d atrás
Participou de uma reunião de recrutamento 42d atrás
Participou de uma reunião de recrutamento 49d atrás
Aniversário 56d atrás
Participou de uma reunião de recrutamento 56d atrás

Monitorando agora

94
Jogador Clube Status Habilidade Confiança Observado Última observação Último voto
Jordan Amissah Burton Albion Ativo 108 / 105 40% 1 29.11.2026 -
Matevž Vidovšek Olimpija Ljubljana Ativo 113 / 121 40% 1 29.11.2026 -
Will Mannion Charlton Athletic Ativo 121 / 112 40% 1 27.11.2026 -
Bruno Antúnez Boston River Ativo 108 / 116 40% 4 25.11.2026 -
Adam Randell Bristol City Ativo 135 / 127 40% 1 23.11.2026 -
Yhormar Hurtado Lechia Ativo 110 / 115 40% 2 22.11.2026 -
Matheus Silva Qarabag Ativo 135 / 112 40% 1 22.11.2026 -
Patrik Demjén MTK Budapest Ativo 119 / 104 40% 1 20.11.2026 -
Alfie Whiteman Newport County Ativo 121 / 104 40% 1 20.11.2026 -
Pablo García Gijón Ativo 107 / 111 40% 1 20.11.2026 -
Ignacio Rodríguez Racing Club Ativo 132 / 124 40% 3 19.11.2026 -
Will Dennis Milton Keynes Dons Ativo 93 / 113 40% 1 18.11.2026 -
Dayne St. Clair Inter Miami CF Ativo 129 / 120 40% 2 16.11.2026 -
Justin Hammel Grasshopper Ativo 111 / 115 40% 1 16.11.2026 -
Patrick Schulte Columbus Crew Ativo 115 / 116 40% 2 14.11.2026 -
Carlos da Rosa Cerro Ativo 90 / 101 40% 1 10.11.2026 -
Naledi Hlongwane Wa All Stars Ativo 98 / 102 40% 1 08.11.2026 -
Csanád Vilmos Dénes Debrecen Ativo 101 / 105 40% 1 08.11.2026 -
Anthony Patterson Wrexham Ativo 130 / 136 40% 3 06.11.2026 -
Sandi Zajc NK Domzale Ativo 99 / 106 40% 1 04.11.2026 -
Eneko Astigarraga Real Sociedad Ativo 88 / 87 40% 1 04.11.2026 -
Emiliano Álvarez Progreso Ativo 116 / 127 40% 1 02.11.2026 -
Agustín Buffa Wanderers Ativo 91 / 94 40% 1 31.10.2026 -
Óscar Díaz Miramar Misiones Ativo 102 / 117 40% 1 29.10.2026 -
Drake Callender Minnesota United FC Ativo 123 / 117 40% 1 28.10.2026 -
Roman Celentano FC Cincinnati Ativo 118 / 113 40% 1 28.10.2026 -
Diego Enríquez Sporting Cristal Ativo 119 / 121 40% 3 26.10.2026 -
Josh Keeley Luton Town Ativo 134 / 116 40% 1 26.10.2026 -
Thomas Carrique Andorra Ativo 131 / 127 40% 2 25.10.2026 -
Lucas Souto Defensa y Justicia Ativo 123 / 120 40% 1 25.10.2026 -
Facundo Miño Deportivo Riestra Ativo 115 / 117 40% 1 24.10.2026 -
Luis Ingolotti Atlético Tucumán Ativo 112 / 121 40% 2 23.10.2026 -
Teboho Mokoena Mamelodi Sundowns Ativo 144 / 124 40% 2 22.10.2026 -
Álex Vázquez Racing Ativo 104 / 109 40% 1 22.10.2026 -
Myles Roberts Cambridge United Ativo 89 / 103 40% 1 22.10.2026 -
Alex Bass Peterborough United Ativo 100 / 113 40% 1 22.10.2026 -
Leo Castledine Middlesbrough Ativo 112 / 142 40% 1 21.10.2026 -
Balázs Tóth Blackburn Rovers Ativo 137 / 114 40% 1 20.10.2026 -
Tobías Bovone Deportivo Pereira Ativo 112 / 109 40% 1 19.10.2026 -
Fernando Hernández Bekescsaba Ativo 82 / 94 40% 1 17.10.2026 -
Leandro Lozano Boca Juniors Ativo 128 / 126 40% 1 14.10.2026 -
Mauro Casoli Talleres Ativo 94 / 110 40% 1 13.10.2026 -
Lautaro Petruchi Gimnasia y Esgrima Ativo 113 / 115 40% 1 11.10.2026 -
Luciano Jachfe Nueva Chicago Ativo 119 / 123 40% 1 09.10.2026 -
Alan García Wanderers Ativo 106 / 108 40% 1 09.10.2026 -
Alexis Gutiérrez Club America Ativo 120 / 122 40% 3 08.10.2026 -
Ortwin De Wolf KV Mechelen Ativo 107 / 116 40% 1 05.10.2026 -
Lucas Verza Olimpia Ativo 103 / 111 40% 1 05.10.2026 -
Ricardo Echeverría Santos Laguna Ativo 118 / 118 40% 1 04.10.2026 -
José Alberti Wanderers Ativo 125 / 128 40% 2 30.09.2026 -
Pablo Monroy Pumas UNAM Ativo 114 / 120 40% 1 30.09.2026 -
Alejandro Gómez Tijuana Ativo 121 / 117 40% 2 28.09.2026 -
Aarón Mejía Tijuana Ativo 116 / 121 40% 3 27.09.2026 -
Santiago Franca Cerro Largo Ativo 99 / 96 40% 1 27.09.2026 -
Diego Capdevila Cerro Ativo 82 / 95 40% 1 26.09.2026 -
Alexander Lyng SonderjyskE Ativo 103 / 126 40% 1 26.09.2026 -
Luka Andrade Montevideo City Torque Ativo 98 / 110 40% 1 25.09.2026 -
Dylan Cabral Arsenal Ativo 89 / 101 40% 1 25.09.2026 -
Ezekiel Kwame Alladoh Philadelphia Union Ativo 111 / 117 40% 1 23.09.2026 -
Renato Solís Sporting Cristal Ativo 121 / 126 40% 1 20.09.2026 -
Juan Moreno La Luz Ativo 115 / 118 40% 1 20.09.2026 -
Jhon Gamboa Envigado Ativo 114 / 119 40% 1 20.09.2026 -
Juan Diego Giraldo Union Magdalena Ativo 94 / 111 40% 1 20.09.2026 -
Erik de los Santos Racing Ativo 117 / 117 40% 1 19.09.2026 -
Uziel García Morelia Ativo 109 / 109 40% 1 19.09.2026 -
Juan José Mera Deportes Tolima Ativo 125 / 118 40% 1 16.09.2026 -
Diego Corral Universidad Catolica Ativo 95 / 94 40% 1 16.09.2026 -
Angel Zamudio Sport Huancayo Ativo 112 / 122 40% 2 15.09.2026 -
Lucas Bergström Union Berlin Ativo 135 / 134 40% 1 13.09.2026 -
Diego Chávez Deportivo Pasto Ativo 114 / 112 40% 2 08.09.2026 -
Joaquín Varela Independiente Medellin Ativo 120 / 117 40% 1 08.09.2026 -
Lucas Di Maio Cobresal Ativo 83 / 78 40% 1 07.09.2026 -
Emiliano Ancheta Nacional Ativo 127 / 113 40% 2 06.09.2026 -
Santiago Noreña Envigado Ativo 105 / 106 40% 1 06.09.2026 -
Santiago Sequeira Central Espanol Ativo 83 / 98 40% 1 06.09.2026 -
Tiago Pucciarelli IF Elfsborg Ativo 95 / 116 40% 1 06.09.2026 -
Nicolás Campisi Sportivo Luqueno Ativo 128 / 119 40% 1 02.09.2026 -
Enzo Giménez Queretaro Ativo 116 / 123 40% 2 31.08.2026 -
Germán Barrios Defensor Sporting Ativo 103 / 115 40% 1 31.08.2026 -
Matías Contrera Hrvatski Dragovoljac Ativo 99 / 108 40% 1 31.08.2026 -
Jorge Caicedo Cortulua Ativo 98 / 116 40% 1 29.08.2026 -
Michael Carcelén Queretaro Ativo 121 / 122 40% 2 26.08.2026 -
Ezequiel Neira Carabobo Ativo 112 / 116 40% 1 25.08.2026 -
Junior Hernández Deportes Tolima Ativo 122 / 122 40% 1 24.08.2026 -
Cristhian Riveros General Caballero Ativo 98 / 96 40% 1 21.08.2026 -
Felipe Montero La Equidad Ativo 106 / 110 40% 1 19.08.2026 -
Carlos Jimenez Veracruz Ativo 124 / 115 40% 1 19.08.2026 -
Beycker Velásquez Zamora Ativo 109 / 94 40% 1 18.08.2026 -
Francisco Casanova Cerrito Ativo 108 / 102 40% 1 18.08.2026 -
José Ortiz Atletico Bucaramanga Ativo 121 / 112 40% 1 17.08.2026 -
Cristhián Rivas Estudiantes de Merida Ativo 118 / 120 40% 2 16.08.2026 -
Diego Romero Liverpool Montevideo Ativo 116 / 110 40% 1 09.08.2026 -
Fabrizio Correa Juventud Ativo 125 / 123 40% 1 08.08.2026 -
Bryan Rivera Estudiantes de Merida Ativo 102 / 100 40% 1 02.08.2026 -